Time;durP1;ratioP1;P1;durP2;ratioP2;P2;SDS_P1;SDS_P2;PMS_P1;PMS_P2;Temp;Humidity;BMP_temperature;BMP_pressure;BME280_temperature;BME280_humidity;BME280_pressure;Samples;Min_cycle;Max_cycle;Signal;HPM_P1;HPM_P2
2022/06/11 00:00:50;;;;;;;4.72;2.50;;;;;;;20.73;48.56;100523.75;4966024;28;20043;-83
2022/06/11 00:03:19;;;;;;;5.00;2.40;;;;;;;20.70;48.44;100519.56;4938183;28;20050;-84
2022/06/11 00:05:46;;;;;;;5.65;2.53;;;;;;;20.68;48.27;100524.31;4951429;28;20065;-79
2022/06/11 00:08:13;;;;;;;5.68;2.65;;;;;;;20.66;48.44;100520.97;4949073;28;20057;-80
2022/06/11 00:10:40;;;;;;;3.72;2.42;;;;;;;20.62;48.38;100522.34;4948853;28;20042;-81
2022/06/11 00:13:06;;;;;;;3.80;2.28;;;;;;;20.59;48.71;100522.72;4959130;28;20073;-82
2022/06/11 00:15:34;;;;;;;3.33;2.45;;;;;;;20.57;48.66;100530.16;4950563;28;20450;-82
2022/06/11 00:18:02;;;;;;;5.85;2.55;;;;;;;20.54;48.47;100522.41;4960753;28;20046;-82
2022/06/11 00:20:30;;;;;;;7.13;2.78;;;;;;;20.52;48.74;100529.84;4958877;28;20046;-82
2022/06/11 00:22:57;;;;;;;3.55;2.10;;;;;;;20.51;48.57;100533.59;4951199;28;20057;-82
2022/06/11 00:25:26;;;;;;;2.60;2.40;;;;;;;20.48;48.52;100528.53;4934597;28;20565;-80
2022/06/11 00:27:53;;;;;;;3.63;2.22;;;;;;;20.44;48.96;100529.94;4966390;28;20050;-80
2022/06/11 00:30:19;;;;;;;6.55;2.75;;;;;;;20.41;48.95;100531.13;4953863;28;20503;-80
2022/06/11 00:32:47;;;;;;;4.93;2.45;;;;;;;20.42;48.70;100535.50;4957790;28;20052;-80
2022/06/11 00:35:16;;;;;;;4.50;2.60;;;;;;;20.37;48.65;100533.34;4970302;28;20046;-79
2022/06/11 00:37:43;;;;;;;6.35;2.42;;;;;;;20.35;48.89;100534.56;4952004;28;20053;-79
2022/06/11 00:40:12;;;;;;;4.75;2.97;;;;;;;20.35;48.80;100535.41;4959066;28;20078;-80
2022/06/11 00:42:39;;;;;;;4.75;2.60;;;;;;;20.34;48.92;100535.59;4965850;28;20051;-80
2022/06/11 00:45:22;;;;;;;5.03;2.38;;;;;;;20.30;49.11;100534.25;4948439;28;20046;-79
2022/06/11 00:47:59;;;;;;;6.55;2.30;;;;;;;20.26;49.13;100538.34;4920861;28;20045;-80
2022/06/11 00:50:46;;;;;;;3.92;2.70;;;;;;;20.23;49.48;100536.88;4968781;28;20058;-79
2022/06/11 00:53:41;;;;;;;5.85;2.50;;;;;;;20.19;49.65;100522.06;4939481;28;20517;-80
2022/06/11 00:56:21;;;;;;;5.00;2.20;;;;;;;20.15;49.21;100534.25;4908002;28;20050;-80
2022/06/11 00:58:50;;;;;;;4.80;2.45;;;;;;;20.14;49.20;100532.53;4980378;28;20046;-80
2022/06/11 01:01:19;;;;;;;4.30;2.83;;;;;;;20.12;49.56;100527.34;4969924;28;20050;-80
2022/06/11 01:03:47;;;;;;;3.78;2.50;;;;;;;20.11;49.42;100528.34;4952214;28;20039;-80
2022/06/11 01:06:42;;;;;;;3.47;2.72;;;;;;;20.03;49.59;100517.63;4949100;28;20045;-80
2022/06/11 01:09:23;;;;;;;3.50;2.42;;;;;;;20.03;49.60;100514.13;4969844;28;20410;-80
2022/06/11 01:12:13;;;;;;;4.65;2.40;;;;;;;19.95;49.66;100510.47;4933968;28;20042;-80
2022/06/11 01:14:47;;;;;;;3.25;2.30;;;;;;;19.92;49.81;100518.06;4936434;28;20635;-80
2022/06/11 01:17:27;;;;;;;7.57;3.00;;;;;;;19.89;49.37;100513.03;4967033;28;20089;-80
2022/06/11 01:20:04;;;;;;;5.68;2.78;;;;;;;19.80;49.45;100519.50;4974915;28;20043;-80
2022/06/11 01:22:52;;;;;;;4.10;2.45;;;;;;;19.59;50.35;100520.09;4965567;28;20094;-79
2022/06/11 01:26:00;;;;;;;4.75;3.03;;;;;;;19.54;50.13;100523.34;4965539;28;20399;-79
2022/06/11 01:28:51;;;;;;;5.85;2.95;;;;;;;19.52;50.11;100531.59;4912715;28;20048;-79
2022/06/11 01:31:25;;;;;;;3.50;2.60;;;;;;;19.56;49.84;100521.28;4958061;28;20406;-79
2022/06/11 01:34:08;;;;;;;4.55;2.47;;;;;;;19.59;50.13;100523.66;4981358;28;20108;-79
2022/06/11 01:36:41;;;;;;;3.90;2.60;;;;;;;19.59;49.94;100526.34;4984170;28;20468;-80
2022/06/11 01:39:25;;;;;;;5.03;2.35;;;;;;;19.60;50.06;100519.94;4983392;28;20045;-80
2022/06/11 01:42:07;;;;;;;4.28;2.60;;;;;;;19.60;50.08;100521.78;4984138;28;20541;-80
2022/06/11 01:44:37;;;;;;;4.65;2.97;;;;;;;19.61;50.01;100521.59;4936323;28;20038;-80
2022/06/11 01:47:05;;;;;;;4.18;2.60;;;;;;;19.61;49.94;100523.47;4924829;28;20055;-80
2022/06/11 01:49:45;;;;;;;2.60;2.40;;;;;;;19.58;50.39;100521.13;4943158;28;20050;-80
2022/06/11 01:52:21;;;;;;;4.45;2.40;;;;;;;19.57;49.95;100522.16;4948227;28;20421;-80
2022/06/11 01:55:10;;;;;;;4.57;2.50;;;;;;;19.55;50.10;100516.09;4991278;28;20046;-80
2022/06/11 01:58:13;;;;;;;3.88;2.75;;;;;;;19.52;50.40;100506.53;4942808;28;20053;-82
2022/06/11 02:00:51;;;;;;;2.90;2.42;;;;;;;19.49;50.30;100507.72;4978397;28;20042;-83
2022/06/11 02:03:33;;;;;;;5.18;2.60;;;;;;;19.47;50.18;100507.03;4928852;28;20059;-83
2022/06/11 02:06:33;;;;;;;3.75;2.58;;;;;;;19.44;50.26;100511.97;4944718;28;20050;-83
2022/06/11 02:09:18;;;;;;;5.43;2.45;;;;;;;19.41;50.34;100513.16;4946472;28;20073;-83
2022/06/11 02:11:46;;;;;;;4.63;2.35;;;;;;;19.42;49.99;100511.28;4950827;28;20043;-84
2022/06/11 02:14:25;;;;;;;7.95;2.60;;;;;;;19.37;50.54;100508.28;4967492;28;20106;-83
2022/06/11 02:16:56;;;;;;;5.32;2.78;;;;;;;19.37;50.32;100511.81;4958652;28;20057;-84
2022/06/11 02:19:38;;;;;;;6.15;2.58;;;;;;;19.32;50.64;100516.88;4982630;28;20054;-83
2022/06/11 02:22:29;;;;;;;4.22;2.90;;;;;;;19.29;50.14;100515.38;4973976;28;20374;-83
2022/06/11 02:25:13;;;;;;;4.13;2.67;;;;;;;19.30;50.63;100518.91;4950003;28;20423;-86
2022/06/11 02:27:41;;;;;;;5.05;2.78;;;;;;;19.30;50.47;100525.13;4925046;28;20043;-85
2022/06/11 02:30:11;;;;;;;4.65;2.40;;;;;;;19.28;50.37;100527.19;4957561;28;20055;-82
2022/06/11 02:32:38;;;;;;;4.35;2.40;;;;;;;19.27;50.53;100528.19;4952512;28;20074;-82
2022/06/11 02:35:09;;;;;;;5.18;2.50;;;;;;;19.23;50.55;100517.94;4949471;28;20126;-85
2022/06/11 02:37:43;;;;;;;3.90;2.83;;;;;;;19.20;51.06;100521.81;4946262;28;20039;-85
2022/06/11 02:40:12;;;;;;;3.78;2.53;;;;;;;19.20;50.58;100529.88;4953511;28;20054;-85
2022/06/11 02:42:38;;;;;;;4.50;2.50;;;;;;;19.15;50.75;100526.06;4947677;28;20077;-86
2022/06/11 02:45:06;;;;;;;2.67;2.47;;;;;;;19.14;50.58;100527.91;4951489;28;20047;-85
2022/06/11 02:47:33;;;;;;;5.05;2.70;;;;;;;19.12;50.95;100523.72;4948801;28;20043;-85
2022/06/11 02:49:59;;;;;;;4.88;2.50;;;;;;;19.08;51.04;100521.38;4944883;28;20042;-85
2022/06/11 02:52:26;;;;;;;4.28;2.55;;;;;;;19.06;51.16;100527.94;4964630;28;20043;-86
2022/06/11 02:54:53;;;;;;;3.90;2.50;;;;;;;19.02;51.02;100527.44;4930887;28;20039;-86
2022/06/11 02:57:24;;;;;;;4.28;2.40;;;;;;;18.97;51.28;100529.81;4930919;28;20410;-85
2022/06/11 02:59:52;;;;;;;3.83;2.67;;;;;;;18.96;51.35;100535.38;4957840;28;20053;-85
2022/06/11 03:02:21;;;;;;;6.35;3.10;;;;;;;18.94;51.24;100535.56;4948436;28;20071;-85
2022/06/11 03:04:48;;;;;;;3.22;2.60;;;;;;;18.89;51.33;100531.69;4946646;28;20050;-85
2022/06/11 03:07:15;;;;;;;3.65;2.50;;;;;;;18.79;51.50;100535.41;4932973;28;21495;-85
2022/06/11 03:09:48;;;;;;;5.72;2.75;;;;;;;18.77;51.95;100536.59;4965753;28;20055;-85
2022/06/11 03:12:15;;;;;;;5.22;2.90;;;;;;;18.75;51.69;100538.59;4960210;28;20047;-85
2022/06/11 03:14:42;;;;;;;4.80;3.53;;;;;;;18.72;51.69;100530.88;4939243;28;20121;-85
2022/06/11 03:17:11;;;;;;;3.25;2.95;;;;;;;18.69;51.56;100537.44;4954214;28;20106;-82
2022/06/11 03:19:38;;;;;;;3.88;2.72;;;;;;;18.70;51.65;100543.63;4934758;28;20406;-82
2022/06/11 03:22:05;;;;;;;3.28;2.38;;;;;;;18.69;51.53;100544.66;4960282;28;20550;-82
2022/06/11 03:24:31;;;;;;;2.70;2.50;;;;;;;18.67;51.54;100542.13;4934364;28;20038;-81
2022/06/11 03:26:58;;;;;;;5.22;2.65;;;;;;;18.67;51.46;100544.81;4933249;28;20063;-82
2022/06/11 03:29:26;;;;;;;3.65;2.53;;;;;;;18.63;51.58;100541.66;4952302;28;20046;-83
2022/06/11 03:31:54;;;;;;;5.32;2.88;;;;;;;18.63;51.59;100547.03;4958264;28;20034;-83
2022/06/11 03:34:21;;;;;;;3.40;2.83;;;;;;;18.59;51.83;100555.59;4949544;28;20090;-83
2022/06/11 03:36:52;;;;;;;3.63;3.25;;;;;;;18.57;51.64;100557.63;4951849;28;20059;-83
2022/06/11 03:39:20;;;;;;;5.88;2.97;;;;;;;18.55;51.47;100557.81;4951797;28;20054;-82
2022/06/11 03:41:48;;;;;;;2.75;2.45;;;;;;;18.58;51.49;100557.47;4943351;28;20422;-81
2022/06/11 03:44:15;;;;;;;5.00;2.88;;;;;;;18.65;51.96;100558.47;4959227;28;20133;-83
2022/06/11 03:46:42;;;;;;;4.40;3.00;;;;;;;18.84;51.90;100564.50;4935407;28;20051;-83
2022/06/11 03:49:09;;;;;;;5.78;2.78;;;;;;;19.02;51.39;100566.97;4932652;28;20055;-85
2022/06/11 03:51:35;;;;;;;5.68;2.55;;;;;;;19.17;51.33;100564.41;4951651;28;20051;-85
2022/06/11 03:54:03;;;;;;;3.90;2.53;;;;;;;19.28;50.85;100564.88;4973511;28;20042;-85
2022/06/11 03:56:30;;;;;;;3.85;2.50;;;;;;;19.36;50.66;100566.69;4977676;28;20486;-85
2022/06/11 03:58:57;;;;;;;7.55;3.00;;;;;;;19.46;50.41;100563.78;4931444;28;20050;-82
2022/06/11 04:01:25;;;;;;;5.00;2.50;;;;;;;19.51;50.25;100564.94;4949146;28;20498;-81
2022/06/11 04:03:56;;;;;;;5.60;2.80;;;;;;;19.52;49.96;100561.22;4953813;28;20129;-85
2022/06/11 04:06:32;;;;;;;5.15;2.60;;;;;;;19.51;50.02;100573.03;4957235;28;20415;-84
2022/06/11 04:09:04;;;;;;;4.72;2.25;;;;;;;19.47;50.28;100570.84;4975123;28;20049;-85
2022/06/11 04:11:31;;;;;;;7.85;3.00;;;;;;;19.44;50.10;100569.34;4952202;28;20142;-85
2022/06/11 04:13:58;;;;;;;5.28;3.33;;;;;;;19.49;50.20;100574.22;4945180;28;20050;-85
2022/06/11 04:16:31;;;;;;;3.53;2.70;;;;;;;19.50;50.15;100578.56;4957188;28;20545;-84
2022/06/11 04:19:02;;;;;;;3.97;2.40;;;;;;;19.62;50.00;100573.66;4965641;28;20047;-85
2022/06/11 04:21:31;;;;;;;4.43;3.03;;;;;;;19.70;49.95;100574.47;4968005;28;20051;-85
2022/06/11 04:23:58;;;;;;;4.78;2.95;;;;;;;19.73;49.88;100571.41;4949191;28;20054;-85
2022/06/11 04:26:33;;;;;;;2.72;2.30;;;;;;;19.74;49.85;100569.53;4946244;28;20046;-85
2022/06/11 04:29:00;;;;;;;4.57;2.40;;;;;;;19.69;49.71;100575.50;4964133;28;20056;-80
2022/06/11 04:31:28;;;;;;;5.32;2.67;;;;;;;19.70;49.41;100576.31;4983020;28;20202;-80
2022/06/11 04:33:56;;;;;;;5.82;2.70;;;;;;;19.80;49.53;100570.72;4966662;28;20045;-80
2022/06/11 04:36:24;;;;;;;5.45;2.50;;;;;;;19.92;49.58;100566.56;4945685;28;20376;-79
2022/06/11 04:38:51;;;;;;;5.03;2.45;;;;;;;20.04;49.75;100570.53;4940255;28;20125;-80
2022/06/11 04:41:19;;;;;;;5.32;2.70;;;;;;;20.14;49.19;100573.00;4958232;28;20047;-80
2022/06/11 04:43:45;;;;;;;8.27;2.88;;;;;;;20.20;48.98;100577.69;4941151;28;20589;-79
2022/06/11 04:46:13;;;;;;;4.93;2.70;;;;;;;20.27;48.90;100575.91;4959491;28;20082;-79
2022/06/11 04:48:40;;;;;;;3.58;2.17;;;;;;;20.26;48.77;100576.94;4949204;28;20055;-80
2022/06/11 04:51:07;;;;;;;6.00;2.70;;;;;;;20.27;48.66;100581.31;4960595;28;20055;-80
2022/06/11 04:53:34;;;;;;;5.47;3.10;;;;;;;20.23;48.45;100581.88;4955774;28;20618;-83
2022/06/11 04:56:01;;;;;;;4.63;3.22;;;;;;;20.14;48.81;100586.47;4943202;28;20069;-83
2022/06/11 04:58:28;;;;;;;6.38;3.10;;;;;;;20.07;48.64;100591.72;4948968;28;20062;-83
2022/06/11 05:00:55;;;;;;;3.80;2.95;;;;;;;20.05;49.02;100584.84;4980204;28;20047;-83
2022/06/11 05:03:21;;;;;;;5.10;2.60;;;;;;;20.01;49.11;100581.69;4969192;28;20042;-83
2022/06/11 05:05:48;;;;;;;5.15;2.75;;;;;;;19.97;49.27;100588.44;4928190;28;20046;-83
2022/06/11 05:08:15;;;;;;;4.25;2.60;;;;;;;19.92;49.51;100583.59;4946969;28;20050;-83
2022/06/11 05:10:44;;;;;;;4.50;2.85;;;;;;;19.91;49.53;100589.16;4954327;28;20055;-83
2022/06/11 05:13:11;;;;;;;4.97;3.10;;;;;;;19.83;49.35;100589.22;4968113;28;20082;-83
2022/06/11 05:15:44;;;;;;;4.18;2.75;;;;;;;19.74;49.62;100588.41;4971883;28;20043;-83
2022/06/11 05:18:13;;;;;;;7.95;3.10;;;;;;;19.72;49.67;100596.69;4962904;28;20050;-83
2022/06/11 05:20:40;;;;;;;4.55;3.17;;;;;;;19.67;49.94;100595.53;4956270;28;20053;-82
2022/06/11 05:23:07;;;;;;;3.75;3.25;;;;;;;19.62;50.20;100597.91;4956249;28;20057;-82
2022/06/11 05:25:36;;;;;;;7.18;3.25;;;;;;;19.62;50.00;100595.19;4949574;28;20049;-80
2022/06/11 05:28:05;;;;;;;4.75;2.90;;;;;;;19.62;50.15;100600.59;4964603;28;20046;-80
2022/06/11 05:30:33;;;;;;;4.97;2.83;;;;;;;19.60;50.12;100598.06;4963611;28;20054;-80
2022/06/11 05:33:01;;;;;;;4.97;2.92;;;;;;;19.62;50.55;100605.97;4956321;28;20045;-80
2022/06/11 05:35:34;;;;;;;5.03;3.10;;;;;;;19.60;50.96;100599.91;4949797;28;20054;-80
2022/06/11 05:38:03;;;;;;;7.70;3.17;;;;;;;19.70;50.69;100601.41;4957225;28;20055;-80
2022/06/11 05:40:33;;;;;;;5.70;3.10;;;;;;;19.73;50.55;100600.22;4932869;28;20043;-80
2022/06/11 05:43:00;;;;;;;5.88;3.38;;;;;;;19.72;50.34;100607.47;4948736;28;20035;-80
2022/06/11 05:45:35;;;;;;;5.35;3.45;;;;;;;19.68;50.83;100608.00;4947405;28;20127;-80
2022/06/11 05:48:05;;;;;;;5.20;3.17;;;;;;;19.72;50.89;100607.47;4958480;28;20133;-79
2022/06/11 05:50:35;;;;;;;3.92;3.28;;;;;;;19.78;50.78;100605.91;4982523;28;20137;-80
2022/06/11 05:53:03;;;;;;;5.00;3.28;;;;;;;19.83;50.70;100608.09;4946209;28;20039;-80
2022/06/11 05:55:32;;;;;;;7.15;3.30;;;;;;;19.90;51.05;100609.06;4949761;28;20536;-80
2022/06/11 05:58:01;;;;;;;5.68;3.10;;;;;;;19.95;50.76;100607.50;4937581;28;20038;-80
2022/06/11 06:00:29;;;;;;;3.40;3.05;;;;;;;19.98;51.28;100606.31;4947412;28;20407;-82
2022/06/11 06:02:56;;;;;;;6.13;3.15;;;;;;;20.03;50.98;100595.81;4948394;28;20403;-82
2022/06/11 06:05:27;;;;;;;6.03;3.72;;;;;;;20.05;51.31;100604.56;4945180;28;20069;-82
2022/06/11 06:07:53;;;;;;;6.72;3.42;;;;;;;20.07;51.45;100602.53;4945562;28;20125;-82
2022/06/11 06:10:23;;;;;;;4.38;3.00;;;;;;;20.08;51.24;100598.81;4927548;28;20077;-82
2022/06/11 06:12:50;;;;;;;4.00;3.10;;;;;;;20.15;51.40;100602.47;4925634;28;20049;-82
2022/06/11 06:15:23;;;;;;;4.68;3.40;;;;;;;20.17;51.40;100605.84;4963161;28;20051;-82
2022/06/11 06:17:51;;;;;;;5.18;2.67;;;;;;;20.17;51.65;100604.97;4923736;28;20057;-81
2022/06/11 06:20:21;;;;;;;3.65;2.50;;;;;;;20.25;51.57;100607.66;4944299;28;20051;-81
2022/06/11 06:22:48;;;;;;;4.88;3.03;;;;;;;20.23;51.39;100606.97;4930251;28;20524;-83
2022/06/11 06:25:17;;;;;;;5.63;3.38;;;;;;;20.26;51.29;100614.69;4930043;28;20057;-84
2022/06/11 06:27:44;;;;;;;5.93;3.35;;;;;;;20.31;51.23;100612.31;4947202;28;20498;-84
2022/06/11 06:30:16;;;;;;;4.07;3.03;;;;;;;20.32;51.19;100611.28;4946545;28;20049;-84
2022/06/11 06:32:43;;;;;;;4.35;3.38;;;;;;;20.30;51.34;100612.47;4958712;28;20053;-83
2022/06/11 06:35:10;;;;;;;4.95;3.53;;;;;;;20.37;51.29;100611.56;4947442;28;20059;-78
2022/06/11 06:37:36;;;;;;;8.20;3.55;;;;;;;20.34;51.65;100622.72;4962195;28;20062;-79
2022/06/11 06:40:05;;;;;;;6.32;3.78;;;;;;;20.34;51.69;100608.41;4944596;28;20052;-82
2022/06/11 06:42:31;;;;;;;5.10;3.47;;;;;;;20.38;51.62;100610.56;4948362;28;20514;-78
2022/06/11 06:45:00;;;;;;;6.30;3.72;;;;;;;20.44;52.16;100613.56;4947018;28;20101;-84
2022/06/11 06:47:28;;;;;;;5.75;3.90;;;;;;;20.48;51.79;100612.16;4947319;28;20047;-84
2022/06/11 06:49:55;;;;;;;3.75;3.17;;;;;;;20.54;51.88;100609.63;4976362;28;20057;-83
2022/06/11 06:52:21;;;;;;;9.57;3.70;;;;;;;20.58;52.02;100613.66;4949370;28;20074;-87
2022/06/11 06:54:49;;;;;;;9.23;3.53;;;;;;;20.62;51.89;100613.28;4936134;28;20049;-86
2022/06/11 06:57:16;;;;;;;7.88;3.60;;;;;;;20.60;52.29;100614.28;4944295;28;20114;-81
2022/06/11 06:59:43;;;;;;;11.82;3.90;;;;;;;20.61;52.63;100612.44;4956641;28;20050;-80
2022/06/11 07:02:16;;;;;;;11.45;4.10;;;;;;;20.65;52.87;100612.91;4960831;28;20125;-80
2022/06/11 07:04:43;;;;;;;8.88;3.53;;;;;;;20.68;52.83;100612.53;4952329;28;20051;-81
2022/06/11 07:07:15;;;;;;;8.95;3.30;;;;;;;20.65;52.75;100604.81;4942385;28;20399;-81
2022/06/11 07:09:41;;;;;;;11.98;3.63;;;;;;;20.71;52.43;100604.06;4961960;28;20049;-81
2022/06/11 07:12:08;;;;;;;8.23;3.60;;;;;;;20.72;52.89;100601.19;4945770;28;20098;-81
2022/06/11 07:14:35;;;;;;;4.47;3.42;;;;;;;20.74;53.08;100601.84;4936873;28;20062;-81
2022/06/11 07:17:06;;;;;;;5.47;3.47;;;;;;;20.76;53.56;100601.66;4968831;28;20043;-80
2022/06/11 07:19:40;;;;;;;5.85;3.80;;;;;;;20.78;53.28;100594.22;4944454;28;20468;-81
2022/06/11 07:22:15;;;;;;;7.13;3.90;;;;;;;20.84;53.08;100600.72;4944217;28;20113;-80
2022/06/11 07:24:42;;;;;;;10.23;3.60;;;;;;;20.89;53.48;100595.63;4980872;28;20150;-85
2022/06/11 07:27:38;;;;;;;6.45;3.20;;;;;;;20.86;53.83;100596.81;4977160;28;20499;-85
2022/06/11 07:30:17;;;;;;;4.65;3.15;;;;;;;20.95;53.26;100587.63;4946308;28;20053;-83
2022/06/11 07:32:46;;;;;;;9.73;3.30;;;;;;;20.95;53.43;100590.34;4955356;28;20045;-84
2022/06/11 07:35:15;;;;;;;10.80;3.60;;;;;;;20.99;53.98;100590.81;4953978;28;20049;-83
2022/06/11 07:37:43;;;;;;;8.32;3.60;;;;;;;21.05;53.69;100587.38;4965848;28;20049;-84
2022/06/11 07:40:10;;;;;;;5.88;3.75;;;;;;;21.09;53.40;100594.09;4954198;28;20108;-83
2022/06/11 07:42:37;;;;;;;5.10;3.55;;;;;;;21.12;53.49;100584.78;4945874;28;20479;-85
2022/06/11 07:45:04;;;;;;;8.20;3.00;;;;;;;21.18;54.18;100592.13;4943577;28;20046;-85
2022/06/11 07:50:29;;;;;;;7.05;3.60;;;;;;;21.31;53.54;100586.06;4936534;28;20058;-87
2022/06/11 07:52:56;;;;;;;8.48;3.60;;;;;;;21.37;53.69;100593.41;4977619;28;21188;-86
2022/06/11 07:55:24;;;;;;;8.95;3.60;;;;;;;21.43;53.24;100598.09;4969762;28;20062;-85
2022/06/11 07:57:51;;;;;;;7.53;3.67;;;;;;;21.40;53.09;100595.78;4987431;28;20050;-80
2022/06/11 08:00:25;;;;;;;8.50;3.80;;;;;;;21.32;53.52;100587.72;4970681;28;20494;-81
2022/06/11 08:07:42;;;;;;;6.13;3.42;;;;;;;21.48;53.39;100592.13;4960482;28;20443;-85
2022/06/11 08:10:10;;;;;;;5.57;3.78;;;;;;;21.57;52.92;100596.38;4956657;28;20051;-85
2022/06/11 08:12:37;;;;;;;7.80;3.65;;;;;;;21.59;52.79;100594.34;4974772;28;20050;-85
2022/06/11 08:15:04;;;;;;;9.35;3.90;;;;;;;21.60;52.89;100590.59;4972090;28;20038;-85
2022/06/11 08:17:32;;;;;;;8.23;3.75;;;;;;;21.61;52.28;100597.69;4972952;28;20046;-86
2022/06/11 08:19:59;;;;;;;5.15;3.53;;;;;;;21.61;52.62;100597.69;4968827;28;20099;-84
2022/06/11 08:22:27;;;;;;;7.00;3.60;;;;;;;21.66;52.32;100600.66;4954602;28;20135;-84
2022/06/11 08:24:53;;;;;;;6.35;3.65;;;;;;;21.64;52.96;100589.22;4952417;28;20039;-83
2022/06/11 08:27:20;;;;;;;8.02;3.50;;;;;;;21.67;53.18;100589.66;4964126;28;20053;-83
2022/06/11 08:29:47;;;;;;;6.00;3.28;;;;;;;21.74;53.01;100588.91;4959057;28;20385;-83
2022/06/11 08:32:14;;;;;;;6.53;3.35;;;;;;;21.79;53.13;100591.88;4933387;28;20042;-83
2022/06/11 08:34:44;;;;;;;6.88;3.92;;;;;;;21.87;53.03;100587.19;4949996;28;20066;-83
2022/06/11 08:37:12;;;;;;;8.27;3.95;;;;;;;21.89;52.84;100587.84;4962155;28;20051;-83
2022/06/11 08:39:39;;;;;;;6.45;3.42;;;;;;;21.88;53.24;100578.06;4950676;28;20454;-81
2022/06/11 08:42:09;;;;;;;4.88;3.40;;;;;;;21.95;53.13;100583.50;4945236;28;20471;-82
2022/06/11 08:44:37;;;;;;;8.43;3.45;;;;;;;22.00;52.83;100580.25;4931750;28;20054;-81
2022/06/11 08:47:12;;;;;;;5.97;3.47;;;;;;;22.02;53.06;100568.19;4941677;28;20395;-81
2022/06/11 08:49:47;;;;;;;7.47;3.78;;;;;;;21.99;52.54;100565.88;4947903;28;20407;-81
2022/06/11 08:52:25;;;;;;;6.78;3.15;;;;;;;22.06;52.45;100569.50;4950000;28;20053;-81
2022/06/11 08:54:52;;;;;;;3.95;3.03;;;;;;;22.18;52.23;100569.81;4985711;28;20110;-81
2022/06/11 08:57:32;;;;;;;5.82;3.13;;;;;;;22.18;51.65;100564.41;4968673;28;20047;-81
2022/06/11 09:00:05;;;;;;;4.95;2.85;;;;;;;22.25;51.18;100564.50;4939734;28;20100;-82
2022/06/11 09:02:53;;;;;;;5.78;2.60;;;;;;;22.26;50.90;100563.47;4973475;28;20133;-85
2022/06/11 09:05:26;;;;;;;8.00;3.10;;;;;;;22.48;50.17;100564.28;4935006;28;20085;-84
2022/06/11 09:07:53;;;;;;;6.85;3.10;;;;;;;22.52;51.01;100557.44;4989343;28;20049;-85
2022/06/11 09:10:58;;;;;;;6.97;3.00;;;;;;;22.48;50.05;100559.69;4958876;28;20582;-84
2022/06/11 09:14:06;;;;;;;8.63;2.72;;;;;;;22.51;49.78;100555.75;4929805;28;20051;-81
2022/06/11 09:17:00;;;;;;;4.95;2.90;;;;;;;22.53;49.51;100557.22;4826894;29;20051;-79
2022/06/11 09:19:59;;;;;;;4.88;2.28;;;;;;;22.52;48.80;100550.16;4868649;28;20487;-84
2022/06/11 09:22:42;;;;;;;4.57;2.53;;;;;;;22.54;47.81;100548.09;4902774;28;20051;-78
2022/06/11 09:25:47;;;;;;;11.18;2.80;;;;;;;22.70;48.80;100555.09;4882483;28;20047;-80
2022/06/11 09:28:47;;;;;;;2.85;1.65;;;;;;;22.62;43.68;100546.25;4871754;29;20063;-86
2022/06/11 09:31:26;;;;;;;4.85;2.20;;;;;;;22.71;45.56;100553.19;4826375;29;20055;-86
2022/06/11 09:34:15;;;;;;;4.22;1.70;;;;;;;22.70;43.64;100552.38;4878451;28;20044;-85
2022/06/11 09:36:46;;;;;;;5.28;1.85;;;;;;;22.72;44.32;100546.78;4924189;28;20545;-80
2022/06/11 09:39:25;;;;;;;4.43;1.77;;;;;;;22.77;44.94;100541.59;4884910;29;20111;-84
2022/06/11 09:41:54;;;;;;;4.72;1.83;;;;;;;22.79;44.47;100539.50;4901960;29;20648;-80
2022/06/11 09:44:48;;;;;;;7.57;1.88;;;;;;;22.70;44.44;100544.25;4933081;28;20042;-85
2022/06/11 09:47:24;;;;;;;4.45;1.70;;;;;;;22.75;43.83;100549.91;4955556;28;20042;-80
2022/06/11 09:50:04;;;;;;;3.38;2.13;;;;;;;22.78;43.83;100545.13;4974820;28;20046;-81
2022/06/11 09:52:41;;;;;;;5.40;1.80;;;;;;;22.87;43.94;100546.63;4949314;28;20058;-80
2022/06/11 09:55:21;;;;;;;4.90;2.05;;;;;;;22.95;43.87;100544.63;4949462;28;20133;-86
2022/06/11 09:57:54;;;;;;;4.07;2.10;;;;;;;23.01;43.44;100542.19;4952856;28;20050;-80
2022/06/11 10:00:47;;;;;;;2.97;1.63;;;;;;;23.09;44.64;100542.84;4965303;28;20038;-87
2022/06/11 10:03:45;;;;;;;4.90;1.85;;;;;;;23.10;43.89;100536.41;4949065;28;20044;-83
2022/06/11 10:06:34;;;;;;;4.32;2.20;;;;;;;23.13;43.62;100537.88;4953901;28;20076;-83
2022/06/11 10:09:05;;;;;;;4.45;1.80;;;;;;;23.28;43.81;100541.28;4978565;28;20222;-85
2022/06/11 10:11:51;;;;;;;5.13;1.92;;;;;;;23.34;44.33;100539.63;4964621;28;20509;-85
2022/06/11 10:14:36;;;;;;;3.53;1.90;;;;;;;23.26;43.69;100539.81;4953293;28;20039;-81
2022/06/11 10:17:54;;;;;;;3.55;1.92;;;;;;;23.19;43.32;100545.19;4913630;28;20058;-86
2022/06/11 10:20:29;;;;;;;5.78;2.00;;;;;;;23.37;43.43;100542.75;4886265;28;20544;-84
2022/06/11 10:23:14;;;;;;;2.97;1.73;;;;;;;23.35;41.51;100546.72;4993108;28;20042;-84
2022/06/11 10:25:54;;;;;;;4.43;1.90;;;;;;;23.31;42.71;100545.47;4960724;28;20046;-83
2022/06/11 10:28:38;;;;;;;4.18;2.20;;;;;;;23.32;43.32;100536.28;4925942;28;20066;-83
2022/06/11 10:31:21;;;;;;;4.55;1.80;;;;;;;23.35;43.32;100541.28;4972629;28;20426;-83
2022/06/11 10:33:53;;;;;;;3.28;2.13;;;;;;;23.40;42.62;100541.53;4949471;28;20043;-81
2022/06/11 10:36:30;;;;;;;3.67;2.23;;;;;;;23.32;42.93;100541.69;4963292;28;20051;-81
2022/06/11 10:39:24;;;;;;;5.07;2.08;;;;;;;23.31;42.85;100546.28;4941628;28;20057;-82
2022/06/11 10:42:14;;;;;;;7.53;2.25;;;;;;;23.36;43.71;100549.22;4949230;28;20152;-82
2022/06/11 10:44:47;;;;;;;4.88;1.77;;;;;;;23.49;43.25;100543.03;4960875;28;20523;-77
2022/06/11 10:47:17;;;;;;;;;;;;;;;23.48;43.12;100540.50;4955698;28;20403;-77
2022/06/11 10:49:46;;;;;;;5.18;2.10;;;;;;;23.55;43.66;100544.09;4960997;28;19922;-77
2022/06/11 10:52:18;;;;;;;3.75;1.90;;;;;;;23.57;43.00;100536.59;4934002;28;20407;-77
2022/06/11 10:59:02;;;;;;;5.13;1.83;;;;;;;23.57;42.96;100523.03;4957056;28;20027;-82
2022/06/11 11:01:33;;;;;;;3.88;1.60;;;;;;;23.61;43.10;100527.03;4961083;28;20042;-87
2022/06/11 11:04:22;;;;;;;8.20;2.28;;;;;;;23.59;42.10;100529.91;4966772;28;20072;-82
2022/06/11 11:07:06;;;;;;;4.53;1.90;;;;;;;23.55;41.19;100520.50;4950791;28;20042;-83
2022/06/11 11:09:33;;;;;;;3.83;2.00;;;;;;;23.70;42.90;100524.94;4979845;28;20379;-83
2022/06/11 11:12:04;;;;;;;3.75;2.08;;;;;;;23.70;42.97;100503.25;4948391;28;20043;-81
2022/06/11 11:14:41;;;;;;;6.13;2.30;;;;;;;23.69;43.05;100515.97;4943186;28;20055;-81
2022/06/11 11:17:17;;;;;;;4.88;2.08;;;;;;;23.65;41.55;100519.28;4949702;28;20061;-81
2022/06/11 11:23:02;;;;;;;3.90;2.20;;;;;;;23.74;43.32;100513.50;4928480;28;20149;-82
2022/06/11 11:25:53;;;;;;;4.57;2.30;;;;;;;23.78;42.71;100505.78;4931729;28;20042;-81
2022/06/11 11:28:26;;;;;;;6.72;2.10;;;;;;;23.99;42.86;100512.91;4935688;28;20053;-82
2022/06/11 11:31:04;;;;;;;5.07;1.90;;;;;;;24.00;42.08;100509.16;4978822;28;20383;-80
2022/06/11 11:33:34;;;;;;;4.80;1.98;;;;;;;24.02;42.58;100516.06;5001435;28;20058;-81
2022/06/11 11:36:22;;;;;;;5.22;1.85;;;;;;;24.07;42.14;100507.31;4955456;28;20505;-84
2022/06/11 11:39:17;;;;;;;3.15;1.70;;;;;;;24.00;41.88;100510.00;4971073;28;20043;-81
2022/06/11 11:42:06;;;;;;;7.85;2.40;;;;;;;24.03;41.67;100501.44;4952139;28;20057;-85
2022/06/11 11:44:49;;;;;;;3.83;2.25;;;;;;;24.09;41.79;100505.19;4962880;28;20046;-85
2022/06/11 11:47:21;;;;;;;7.18;2.22;;;;;;;24.16;41.59;100497.91;4985683;28;20586;-82
2022/06/11 11:49:55;;;;;;;5.28;1.98;;;;;;;24.14;41.50;100497.25;4973160;28;20100;-83
2022/06/11 11:52:23;;;;;;;4.18;1.92;;;;;;;24.23;42.25;100501.44;4971578;28;20054;-82
2022/06/11 11:55:01;;;;;;;4.88;2.00;;;;;;;24.23;42.36;100496.03;4962653;28;20494;-83
2022/06/11 11:57:31;;;;;;;4.65;1.92;;;;;;;24.29;42.51;100494.34;4935067;28;20054;-83
2022/06/11 12:00:11;;;;;;;4.78;2.15;;;;;;;24.30;41.87;100506.03;4954876;28;20047;-80
2022/06/11 12:02:46;;;;;;;3.85;2.00;;;;;;;24.35;41.89;100492.66;4946948;28;20051;-81
2022/06/11 12:05:25;;;;;;;3.53;1.90;;;;;;;24.42;40.93;100502.47;4982912;28;20057;-80
2022/06/11 12:07:54;;;;;;;5.82;1.85;;;;;;;24.46;41.76;100495.63;4952291;28;20437;-83